Time;durP1;ratioP1;P1;durP2;ratioP2;P2;SDS_P1;SDS_P2;PMS_P1;PMS_P2;Temp;Humidity;BMP_temperature;BMP_pressure;BME280_temperature;BME280_humidity;BME280_pressure;Samples;Min_cycle;Max_cycle;Signal;HPM_P1;HPM_P2
2022/07/17 00:01:15;;;;;;;11.73;4.00;;;;;;;;;;4976648;28;20018;-76
2022/07/17 00:03:41;;;;;;;7.57;2.28;;;;;;;;;;4976809;28;20043;-76
2022/07/17 00:06:07;;;;;;;9.10;2.17;;;;;;;;;;4976493;28;20101;-76
2022/07/17 00:08:33;;;;;;;17.35;2.67;;;;;;;;;;4976449;28;20034;-76
2022/07/17 00:11:01;;;;;;;8.02;1.92;;;;;;;;;;4976644;28;20051;-76
2022/07/17 00:13:27;;;;;;;11.77;2.88;;;;;;;;;;4976389;28;20037;-76
2022/07/17 00:15:53;;;;;;;8.82;1.73;;;;;;;;;;4976575;28;20031;-76
2022/07/17 00:18:19;;;;;;;6.88;1.88;;;;;;;;;;4964968;28;20086;-76
2022/07/17 00:20:45;;;;;;;8.05;2.17;;;;;;;;;;4956880;28;20027;-76
2022/07/17 00:23:11;;;;;;;7.68;1.90;;;;;;;;;;4957236;29;20030;-76
2022/07/17 00:25:37;;;;;;;12.50;2.00;;;;;;;;;;4956826;29;20031;-76
2022/07/17 00:28:03;;;;;;;6.88;2.10;;;;;;;;;;4956777;29;20043;-76
2022/07/17 00:30:30;;;;;;;7.30;1.77;;;;;;;;;;4957076;28;20078;-76
2022/07/17 00:32:56;;;;;;;4.53;1.50;;;;;;;;;;4956579;28;20068;-76
2022/07/17 00:35:22;;;;;;;8.77;1.80;;;;;;;;;;4956310;28;20058;-76
2022/07/17 00:37:49;;;;;;;5.95;1.70;;;;;;;;;;4956327;28;20541;-76
2022/07/17 00:40:18;;;;;;;3.85;1.30;;;;;;;;;;4956623;28;20446;-76
2022/07/17 00:42:44;;;;;;;9.32;1.90;;;;;;;;;;4956748;29;20065;-76
2022/07/17 00:45:11;;;;;;;10.15;1.67;;;;;;;;;;4956638;28;20027;-76
2022/07/17 00:47:50;;;;;;;6.03;1.90;;;;;;;;;;4956693;29;20039;-76
2022/07/17 00:50:16;;;;;;;8.32;1.48;;;;;;;;;;4956451;29;20034;-76
2022/07/17 00:52:42;;;;;;;6.82;1.95;;;;;;;;;;4956461;29;20042;-76
2022/07/17 00:55:09;;;;;;;6.10;1.73;;;;;;;;;;4971263;28;20035;-76
2022/07/17 00:57:36;;;;;;;8.35;1.65;;;;;;;;;;4956360;29;20471;-76
2022/07/17 01:00:06;;;;;;;6.43;2.00;;;;;;;;;;4956590;29;20082;-76
2022/07/17 01:02:32;;;;;;;9.68;2.53;;;;;;;;;;4956505;28;20079;-76
2022/07/17 01:04:58;;;;;;;10.85;2.85;;;;;;;;;;4956376;29;20062;-76
2022/07/17 01:07:24;;;;;;;6.55;2.70;;;;;;;;;;4956204;28;20090;-76
2022/07/17 01:09:50;;;;;;;6.25;2.25;;;;;;;;;;4956014;29;20031;-76
2022/07/17 01:12:17;;;;;;;5.70;1.98;;;;;;;;;;4956446;29;20034;-76
2022/07/17 01:14:43;;;;;;;7.20;1.63;;;;;;;;;;4956297;29;20019;-76
2022/07/17 01:17:11;;;;;;;7.90;1.98;;;;;;;;;;4957975;28;20034;-76
2022/07/17 01:19:37;;;;;;;5.82;2.38;;;;;;;;;;4975227;28;20042;-76
2022/07/17 01:22:03;;;;;;;6.13;1.95;;;;;;;;;;4975406;28;20027;-76
2022/07/17 01:24:29;;;;;;;8.57;1.85;;;;;;;;;;4973939;28;20027;-76
2022/07/17 01:26:55;;;;;;;8.30;1.90;;;;;;;;;;4975219;28;20093;-77
2022/07/17 01:29:21;;;;;;;7.82;1.80;;;;;;;;;;4975117;28;20065;-76
2022/07/17 01:31:48;;;;;;;5.55;1.45;;;;;;;;;;4975324;28;20026;-76
2022/07/17 01:34:14;;;;;;;3.80;1.70;;;;;;;;;;4974958;28;20054;-76
2022/07/17 01:36:41;;;;;;;8.63;1.60;;;;;;;;;;4974771;28;20544;-76
2022/07/17 01:39:07;;;;;;;5.72;1.60;;;;;;;;;;4974804;28;20026;-76
2022/07/17 01:41:33;;;;;;;5.88;1.95;;;;;;;;;;4974971;28;20102;-76
2022/07/17 01:43:59;;;;;;;4.18;1.50;;;;;;;;;;4974710;28;20034;-76
2022/07/17 01:46:25;;;;;;;5.65;1.50;;;;;;;;;;4974727;28;20046;-76
2022/07/17 01:48:51;;;;;;;8.25;1.60;;;;;;;;;;4974640;28;20026;-76
2022/07/17 01:51:18;;;;;;;6.78;1.65;;;;;;;;;;4974758;28;20031;-76
2022/07/17 01:53:44;;;;;;;6.05;1.60;;;;;;;;;;4974658;28;20513;-76
2022/07/17 01:56:10;;;;;;;6.68;1.77;;;;;;;;;;4974983;28;20097;-76
2022/07/17 01:58:36;;;;;;;8.20;1.40;;;;;;;;;;4974521;28;20362;-76
2022/07/17 02:01:02;;;;;;;5.43;1.40;;;;;;;;;;4974782;28;20438;-76
2022/07/17 02:03:28;;;;;;;6.53;1.60;;;;;;;;;;4974524;28;20019;-76
2022/07/17 02:05:54;;;;;;;5.85;1.67;;;;;;;;;;4974547;28;20058;-76
2022/07/17 02:08:20;;;;;;;5.57;1.33;;;;;;;;;;4974841;28;20023;-76
2022/07/17 02:10:46;;;;;;;4.63;1.45;;;;;;;;;;4974296;28;20454;-77
2022/07/17 02:13:12;;;;;;;6.90;1.60;;;;;;;;;;4974327;28;20034;-76
2022/07/17 02:15:38;;;;;;;7.60;1.98;;;;;;;;;;4974719;28;20038;-76
2022/07/17 02:18:04;;;;;;;3.95;1.70;;;;;;;;;;4965102;28;20031;-76
2022/07/17 02:20:30;;;;;;;8.55;1.70;;;;;;;;;;4955063;29;20161;-76
2022/07/17 02:22:56;;;;;;;7.38;2.13;;;;;;;;;;4955041;29;20027;-76
2022/07/17 02:25:22;;;;;;;5.25;1.67;;;;;;;;;;4954912;29;20030;-76
2022/07/17 02:27:48;;;;;;;6.15;1.70;;;;;;;;;;4954808;29;20027;-76
2022/07/17 02:30:16;;;;;;;7.80;1.88;;;;;;;;;;4953423;28;20030;-76
2022/07/17 02:32:42;;;;;;;5.85;1.70;;;;;;;;;;4964660;28;20042;-76
2022/07/17 02:35:09;;;;;;;3.85;1.60;;;;;;;;;;4974073;28;20102;-76
2022/07/17 02:37:35;;;;;;;7.15;1.85;;;;;;;;;;4973880;28;20122;-76
2022/07/17 02:40:01;;;;;;;9.95;2.17;;;;;;;;;;4973943;28;20077;-76
2022/07/17 02:42:29;;;;;;;5.35;1.75;;;;;;;;;;4972511;28;20106;-76
2022/07/17 02:44:55;;;;;;;5.30;1.67;;;;;;;;;;4971914;28;20455;-76
2022/07/17 02:47:25;;;;;;;8.13;2.28;;;;;;;;;;4954719;28;20066;-76
2022/07/17 02:49:52;;;;;;;9.85;1.85;;;;;;;;;;4954746;28;20027;-76
2022/07/17 02:52:18;;;;;;;6.65;2.58;;;;;;;;;;4954612;29;20038;-76
2022/07/17 02:54:44;;;;;;;5.53;1.80;;;;;;;;;;4954616;29;20107;-76
2022/07/17 02:57:10;;;;;;;8.70;2.20;;;;;;;;;;4954520;29;20031;-76
2022/07/17 02:59:36;;;;;;;4.10;2.00;;;;;;;;;;4953985;28;20035;-76
2022/07/17 03:02:02;;;;;;;7.95;2.40;;;;;;;;;;4954379;29;20024;-76
2022/07/17 03:04:28;;;;;;;3.33;1.63;;;;;;;;;;4954495;28;20034;-76
2022/07/17 03:06:54;;;;;;;6.82;1.77;;;;;;;;;;4969185;28;20035;-76
2022/07/17 03:09:20;;;;;;;7.15;1.83;;;;;;;;;;4954418;28;20027;-76
2022/07/17 03:11:46;;;;;;;4.72;1.55;;;;;;;;;;4968949;28;20442;-76
2022/07/17 03:14:12;;;;;;;5.75;2.13;;;;;;;;;;4954248;29;20102;-76
2022/07/17 03:16:38;;;;;;;6.55;1.80;;;;;;;;;;4954616;29;20102;-76
2022/07/17 03:19:04;;;;;;;7.65;1.75;;;;;;;;;;4954196;29;20111;-76
2022/07/17 03:21:30;;;;;;;4.97;1.70;;;;;;;;;;4954195;29;20411;-76
2022/07/17 03:23:56;;;;;;;4.85;1.88;;;;;;;;;;4954277;29;20023;-76
2022/07/17 03:26:22;;;;;;;4.05;1.50;;;;;;;;;;4954461;29;20031;-76
2022/07/17 03:28:49;;;;;;;4.35;1.50;;;;;;;;;;4954592;29;20386;-76
2022/07/17 03:31:15;;;;;;;4.32;1.20;;;;;;;;;;4954408;29;20151;-76
2022/07/17 03:33:41;;;;;;;5.78;1.88;;;;;;;;;;4954246;29;20027;-76
2022/07/17 03:36:07;;;;;;;5.75;1.70;;;;;;;;;;4953757;29;20051;-76
2022/07/17 03:38:33;;;;;;;3.33;1.42;;;;;;;;;;4954284;29;20083;-76
2022/07/17 03:40:59;;;;;;;4.35;1.50;;;;;;;;;;4954217;29;20476;-76
2022/07/17 03:43:25;;;;;;;8.27;1.85;;;;;;;;;;4954282;29;20027;-76
2022/07/17 03:45:51;;;;;;;4.38;1.60;;;;;;;;;;4954273;28;20024;-76
2022/07/17 03:48:17;;;;;;;6.63;1.58;;;;;;;;;;4954241;28;20106;-76
2022/07/17 03:50:44;;;;;;;7.03;1.50;;;;;;;;;;4953960;29;20023;-76
2022/07/17 03:53:10;;;;;;;8.32;2.00;;;;;;;;;;4954048;29;20049;-76
2022/07/17 03:55:36;;;;;;;6.22;2.00;;;;;;;;;;4953990;29;20027;-76
2022/07/17 03:58:02;;;;;;;4.65;1.70;;;;;;;;;;4954044;29;20083;-76
2022/07/17 04:00:28;;;;;;;5.53;1.80;;;;;;;;;;4954014;29;20030;-76
2022/07/17 04:02:54;;;;;;;6.65;1.63;;;;;;;;;;4954108;29;20358;-76
2022/07/17 04:05:21;;;;;;;4.13;1.27;;;;;;;;;;4953987;29;20036;-76
2022/07/17 04:07:47;;;;;;;5.13;1.90;;;;;;;;;;4954232;29;20059;-76
2022/07/17 04:10:14;;;;;;;4.68;1.65;;;;;;;;;;4954329;28;20031;-76
2022/07/17 04:12:40;;;;;;;6.97;1.90;;;;;;;;;;4956872;29;20020;-76
2022/07/17 04:15:07;;;;;;;3.80;1.40;;;;;;;;;;4957647;29;20031;-76
2022/07/17 04:17:33;;;;;;;2.67;1.20;;;;;;;;;;4972364;28;20363;-76
2022/07/17 04:19:59;;;;;;;5.63;1.60;;;;;;;;;;4957366;29;20031;-76
2022/07/17 04:22:25;;;;;;;3.85;1.35;;;;;;;;;;4957434;29;20474;-76
2022/07/17 04:24:52;;;;;;;4.38;1.58;;;;;;;;;;4957045;29;20394;-76
2022/07/17 04:27:18;;;;;;;6.97;1.77;;;;;;;;;;4957209;29;20490;-76
2022/07/17 04:29:44;;;;;;;3.15;1.42;;;;;;;;;;4957398;29;20395;-76
2022/07/17 04:32:10;;;;;;;4.07;1.30;;;;;;;;;;4963001;28;20027;-76
2022/07/17 04:34:36;;;;;;;4.93;1.40;;;;;;;;;;4976443;28;20035;-76
2022/07/17 04:37:03;;;;;;;4.93;1.50;;;;;;;;;;4976611;28;20035;-76
2022/07/17 04:39:30;;;;;;;3.47;1.30;;;;;;;;;;4975120;28;20051;-76
2022/07/17 04:41:56;;;;;;;8.32;1.65;;;;;;;;;;4976240;28;20023;-76
2022/07/17 04:44:22;;;;;;;4.05;1.50;;;;;;;;;;4976585;28;20022;-76
2022/07/17 04:46:48;;;;;;;13.68;1.48;;;;;;;;;;4959133;28;20032;-76
2022/07/17 04:49:14;;;;;;;6.55;1.42;;;;;;;;;;4956814;29;20482;-76
2022/07/17 04:51:41;;;;;;;3.35;1.63;;;;;;;;;;4956926;29;20083;-76
2022/07/17 04:54:07;;;;;;;9.40;2.00;;;;;;;;;;4956747;29;20109;-76
2022/07/17 04:56:33;;;;;;;5.57;1.60;;;;;;;;;;4956834;29;20059;-76
2022/07/17 04:58:59;;;;;;;4.70;1.40;;;;;;;;;;4956755;29;20475;-76
2022/07/17 05:01:25;;;;;;;5.47;1.73;;;;;;;;;;4956601;29;20031;-76
2022/07/17 05:03:51;;;;;;;6.35;2.05;;;;;;;;;;4987826;28;20035;-76
2022/07/17 05:06:17;;;;;;;6.00;1.60;;;;;;;;;;4956358;29;20027;-76
2022/07/17 05:08:43;;;;;;;6.93;1.58;;;;;;;;;;4956381;29;20050;-76
2022/07/17 05:11:09;;;;;;;3.80;1.40;;;;;;;;;;4956414;29;20122;-76
2022/07/17 05:13:35;;;;;;;3.80;1.33;;;;;;;;;;4956433;28;20046;-76
2022/07/17 05:16:01;;;;;;;3.42;1.60;;;;;;;;;;4956339;28;20023;-76
2022/07/17 05:18:27;;;;;;;6.50;1.48;;;;;;;;;;4956353;28;20027;-76
2022/07/17 05:20:53;;;;;;;12.02;3.25;;;;;;;;;;4956380;29;20110;-76
2022/07/17 05:23:19;;;;;;;4.53;1.50;;;;;;;;;;4955713;28;20058;-76
2022/07/17 05:25:45;;;;;;;7.05;1.65;;;;;;;;;;4956090;29;20038;-75
2022/07/17 05:28:11;;;;;;;5.57;1.73;;;;;;;;;;4956083;28;20020;-75
2022/07/17 05:30:37;;;;;;;6.35;1.88;;;;;;;;;;4956060;29;20024;-75
2022/07/17 05:33:03;;;;;;;5.53;1.60;;;;;;;;;;4955890;29;20030;-75
2022/07/17 05:35:31;;;;;;;9.68;1.63;;;;;;;;;;4955006;28;20055;-75
2022/07/17 05:37:57;;;;;;;7.03;1.98;;;;;;;;;;4954649;28;20041;-75
2022/07/17 05:40:25;;;;;;;7.03;1.45;;;;;;;;;;4954568;29;20023;-74
2022/07/17 05:42:51;;;;;;;9.95;1.50;;;;;;;;;;4954683;28;20102;-75
2022/07/17 05:45:17;;;;;;;10.73;1.80;;;;;;;;;;4954331;28;20030;-75
2022/07/17 05:47:43;;;;;;;14.85;1.58;;;;;;;;;;4954552;29;20035;-75
2022/07/17 05:50:09;;;;;;;6.60;1.35;;;;;;;;;;4954225;29;20054;-75
2022/07/17 05:52:36;;;;;;;6.85;1.63;;;;;;;;;;4954485;29;20113;-75
2022/07/17 05:55:02;;;;;;;9.15;1.50;;;;;;;;;;4954520;29;20058;-74
2022/07/17 05:57:28;;;;;;;6.10;1.50;;;;;;;;;;4954071;29;20043;-75
2022/07/17 05:59:54;;;;;;;8.85;2.30;;;;;;;;;;4954327;29;20158;-75
2022/07/17 06:02:20;;;;;;;4.97;1.27;;;;;;;;;;4954194;29;20082;-75
2022/07/17 06:04:46;;;;;;;7.60;1.23;;;;;;;;;;4954157;28;20034;-75
2022/07/17 06:07:12;;;;;;;7.80;1.33;;;;;;;;;;4954274;29;20034;-74
2022/07/17 06:09:38;;;;;;;5.35;1.40;;;;;;;;;;4954871;29;20035;-75
2022/07/17 06:12:04;;;;;;;5.10;1.35;;;;;;;;;;4955066;29;20046;-75
2022/07/17 06:14:30;;;;;;;6.82;1.02;;;;;;;;;;4955132;29;20451;-75
2022/07/17 06:16:56;;;;;;;6.63;1.27;;;;;;;;;;4954864;28;20057;-75
2022/07/17 06:19:22;;;;;;;3.58;0.93;;;;;;;;;;4954652;29;20074;-75
2022/07/17 06:21:48;;;;;;;7.47;1.45;;;;;;;;;;4954862;28;20019;-76
2022/07/17 06:24:14;;;;;;;8.10;1.30;;;;;;;;;;4954935;29;20030;-75
2022/07/17 06:26:40;;;;;;;9.50;1.30;;;;;;;;;;4954751;29;20028;-76
2022/07/17 06:29:06;;;;;;;12.20;1.30;;;;;;;;;;4954903;28;20030;-75
2022/07/17 06:31:32;;;;;;;6.55;0.98;;;;;;;;;;4954822;29;20131;-75
2022/07/17 06:33:58;;;;;;;4.40;1.00;;;;;;;;;;4952703;28;20410;-76
2022/07/17 06:36:24;;;;;;;6.70;1.20;;;;;;;;;;4954035;29;20051;-75
2022/07/17 06:38:50;;;;;;;3.75;1.15;;;;;;;;;;4957405;28;20605;-75
2022/07/17 06:41:16;;;;;;;2.92;0.82;;;;;;;;;;4989502;28;20055;-76
2022/07/17 06:43:42;;;;;;;4.80;1.00;;;;;;;;;;4981430;28;20493;-76
2022/07/17 06:46:09;;;;;;;5.05;1.10;;;;;;;;;;4980368;28;20545;-76
2022/07/17 06:48:35;;;;;;;5.10;1.17;;;;;;;;;;4990341;28;20041;-76
2022/07/17 06:51:01;;;;;;;5.63;1.20;;;;;;;;;;4980367;28;20353;-76
2022/07/17 06:53:27;;;;;;;5.28;1.20;;;;;;;;;;4981402;28;20037;-75
2022/07/17 06:55:53;;;;;;;5.82;1.08;;;;;;;;;;4988027;28;20029;-76
2022/07/17 06:58:19;;;;;;;5.53;1.15;;;;;;;;;;4986048;28;20035;-75
2022/07/17 07:00:45;;;;;;;7.68;1.38;;;;;;;;;;4989294;28;20033;-75
2022/07/17 07:03:11;;;;;;;9.35;1.50;;;;;;;;;;4987600;28;20030;-75
2022/07/17 07:05:37;;;;;;;4.13;0.98;;;;;;;;;;4992649;28;20347;-76
2022/07/17 07:08:03;;;;;;;4.10;0.90;;;;;;;;;;4992914;28;20080;-76
2022/07/17 07:10:29;;;;;;;7.75;1.17;;;;;;;;;;4992684;28;20034;-75
2022/07/17 07:12:56;;;;;;;3.08;0.80;;;;;;;;;;4992862;28;20034;-75
2022/07/17 07:15:23;;;;;;;4.25;0.75;;;;;;;;;;4993101;28;20033;-75
2022/07/17 07:17:49;;;;;;;6.20;0.93;;;;;;;;;;4978742;28;20027;-75
2022/07/17 07:20:15;;;;;;;8.77;1.00;;;;;;;;;;4954400;29;20031;-75
2022/07/17 07:22:41;;;;;;;5.25;1.20;;;;;;;;;;4954957;28;20418;-75
2022/07/17 07:25:08;;;;;;;5.28;0.80;;;;;;;;;;4959324;28;20355;-75
2022/07/17 07:27:34;;;;;;;8.77;1.70;;;;;;;;;;4985359;28;20326;-75
2022/07/17 07:30:00;;;;;;;5.53;0.85;;;;;;;;;;4993451;28;20029;-75
2022/07/17 07:32:26;;;;;;;7.50;0.88;;;;;;;;;;4980344;28;20046;-75
2022/07/17 07:34:52;;;;;;;7.32;0.95;;;;;;;;;;4979130;28;20038;-75
2022/07/17 07:37:18;;;;;;;6.00;0.88;;;;;;;;;;4984933;28;20046;-75
2022/07/17 07:39:44;;;;;;;5.68;1.08;;;;;;;;;;4982343;28;20023;-75
2022/07/17 07:42:11;;;;;;;5.18;0.95;;;;;;;;;;4982382;28;20027;-75
2022/07/17 07:44:37;;;;;;;6.03;0.88;;;;;;;;;;4987304;28;20015;-75
2022/07/17 07:47:03;;;;;;;6.28;1.02;;;;;;;;;;4978980;28;20478;-75
2022/07/17 07:49:29;;;;;;;3.10;1.15;;;;;;;;;;4988668;28;20026;-75
2022/07/17 07:51:55;;;;;;;11.02;0.85;;;;;;;;;;4986099;28;20022;-75
2022/07/17 07:54:21;;;;;;;6.82;0.82;;;;;;;;;;4986098;28;20401;-75
2022/07/17 07:56:47;;;;;;;2.97;0.70;;;;;;;;;;4983975;28;20031;-75
2022/07/17 07:59:13;;;;;;;5.43;1.20;;;;;;;;;;4985035;28;20524;-75
2022/07/17 08:01:39;;;;;;;7.13;1.08;;;;;;;;;;4983664;28;20023;-75
2022/07/17 08:04:06;;;;;;;4.50;0.70;;;;;;;;;;4993964;28;20430;-75
2022/07/17 08:06:32;;;;;;;6.15;1.10;;;;;;;;;;4988704;28;20038;-74
2022/07/17 08:08:58;;;;;;;4.80;0.98;;;;;;;;;;4979845;28;20037;-75
2022/07/17 08:11:24;;;;;;;6.05;1.27;;;;;;;;;;4979902;28;20023;-75
2022/07/17 08:13:50;;;;;;;7.57;1.00;;;;;;;;;;4983193;28;20477;-76
2022/07/17 08:16:16;;;;;;;4.85;0.85;;;;;;;;;;4987654;28;20034;-75
2022/07/17 08:18:42;;;;;;;5.95;0.93;;;;;;;;;;4993706;28;20018;-75
2022/07/17 08:21:08;;;;;;;7.45;1.10;;;;;;;;;;4993530;28;20018;-75
2022/07/17 08:23:35;;;;;;;7.05;1.02;;;;;;;;;;4985757;28;20015;-75
2022/07/17 08:26:01;;;;;;;6.90;1.20;;;;;;;;;;4996163;28;20022;-75
2022/07/17 08:28:27;;;;;;;9.48;1.10;;;;;;;;;;4980266;28;20358;-75
2022/07/17 08:30:53;;;;;;;4.05;1.17;;;;;;;;;;4983937;28;20015;-75
2022/07/17 08:33:19;;;;;;;6.13;0.95;;;;;;;;;;4990399;28;20430;-75
2022/07/17 08:35:45;;;;;;;7.47;1.50;;;;;;;;;;4990427;28;20077;-75
2022/07/17 08:38:11;;;;;;;4.43;0.77;;;;;;;;;;4996324;28;20092;-75
2022/07/17 08:40:39;;;;;;;4.97;0.80;;;;;;;;;;4985176;28;20019;-75
2022/07/17 08:43:06;;;;;;;4.55;0.80;;;;;;;;;;4989894;28;20033;-75
2022/07/17 08:45:32;;;;;;;3.80;1.20;;;;;;;;;;4983828;28;20015;-75
2022/07/17 08:47:58;;;;;;;6.22;0.90;;;;;;;;;;4976560;28;20038;-75
2022/07/17 08:50:25;;;;;;;4.15;0.70;;;;;;;;;;4976367;28;20105;-74
2022/07/17 08:52:52;;;;;;;7.38;1.00;;;;;;;;;;4976346;28;20031;-75
2022/07/17 08:55:18;;;;;;;3.47;0.70;;;;;;;;;;4976214;28;20023;-74
2022/07/17 08:57:45;;;;;;;4.38;0.90;;;;;;;;;;4975460;28;20027;-75
2022/07/17 09:00:12;;;;;;;6.93;0.90;;;;;;;;;;4975845;28;20055;-74
2022/07/17 09:02:39;;;;;;;5.35;1.50;;;;;;;;;;4980991;28;20076;-75
2022/07/17 09:05:06;;;;;;;2.95;0.73;;;;;;;;;;4979249;28;20085;-75
2022/07/17 09:07:32;;;;;;;3.88;0.73;;;;;;;;;;4985413;28;20380;-75
2022/07/17 09:09:58;;;;;;;7.75;0.80;;;;;;;;;;4982373;28;20019;-75
2022/07/17 09:12:29;;;;;;;5.47;0.85;;;;;;;;;;4985561;28;20489;-76
2022/07/17 09:14:55;;;;;;;4.80;1.33;;;;;;;;;;4992407;28;20038;-75
2022/07/17 09:17:22;;;;;;;4.40;0.82;;;;;;;;;;4988308;28;20045;-76
2022/07/17 09:19:48;;;;;;;4.88;0.82;;;;;;;;;;4986763;28;20487;-75
2022/07/17 09:22:14;;;;;;;4.65;0.88;;;;;;;;;;4983563;28;20030;-75
2022/07/17 09:24:45;;;;;;;3.97;0.90;;;;;;;;;;4981015;28;20097;-74
2022/07/17 09:27:12;;;;;;;5.13;1.00;;;;;;;;;;4976187;28;20496;-74
2022/07/17 09:29:51;;;;;;;2.58;0.77;;;;;;;;;;4977044;28;20504;-74
2022/07/17 09:32:18;;;;;;;4.10;0.90;;;;;;;;;;4973136;28;20034;-74
2022/07/17 09:34:45;;;;;;;5.25;1.05;;;;;;;;;;4973569;28;20038;-75
2022/07/17 09:37:11;;;;;;;7.97;0.77;;;;;;;;;;4974037;28;20037;-74
2022/07/17 09:39:39;;;;;;;4.10;0.70;;;;;;;;;;4974026;28;20023;-74
2022/07/17 09:42:05;;;;;;;4.35;0.70;;;;;;;;;;4974154;28;20015;-75
2022/07/17 09:44:31;;;;;;;4.07;0.93;;;;;;;;;;4973686;28;20098;-74
2022/07/17 09:46:58;;;;;;;3.95;0.80;;;;;;;;;;4973634;28;20031;-75
2022/07/17 09:49:26;;;;;;;2.42;0.82;;;;;;;;;;4973121;28;20499;-78
2022/07/17 09:51:53;;;;;;;5.88;1.02;;;;;;;;;;4974058;28;20113;-75
2022/07/17 09:54:21;;;;;;;4.72;1.08;;;;;;;;;;4974500;28;20050;-78
2022/07/17 09:56:50;;;;;;;6.97;0.90;;;;;;;;;;4973894;28;20425;-76
2022/07/17 09:59:17;;;;;;;6.85;1.25;;;;;;;;;;4973519;28;20027;-75
2022/07/17 10:01:44;;;;;;;2.08;0.60;;;;;;;;;;4973344;28;20019;-76
2022/07/17 10:04:11;;;;;;;3.67;0.90;;;;;;;;;;4973907;28;20193;-78
2022/07/17 10:06:37;;;;;;;3.80;0.60;;;;;;;;;;4973761;28;20023;-78
2022/07/17 10:09:05;;;;;;;5.20;1.00;;;;;;;;;;4973924;28;20038;-78
2022/07/17 10:11:32;;;;;;;7.38;1.40;;;;;;;;;;4973847;28;20478;-78
2022/07/17 10:14:03;;;;;;;3.30;0.80;;;;;;;;;;4973845;28;20031;-78
2022/07/17 10:16:31;;;;;;;3.33;0.80;;;;;;;;;;4973661;28;20022;-79
2022/07/17 10:18:58;;;;;;;4.47;1.02;;;;;;;;;;4957431;28;20498;-78
2022/07/17 10:21:25;;;;;;;7.75;1.10;;;;;;;;;;4958365;28;20030;-78
2022/07/17 10:23:51;;;;;;;4.65;0.80;;;;;;;;;;4973451;28;20026;-77
2022/07/17 10:26:17;;;;;;;4.60;0.90;;;;;;;;;;4973738;28;20022;-78
2022/07/17 10:28:45;;;;;;;6.15;0.88;;;;;;;;;;4974505;28;20470;-79
2022/07/17 10:31:22;;;;;;;4.50;0.70;;;;;;;;;;4976536;28;20158;-78
2022/07/17 10:33:58;;;;;;;3.92;0.80;;;;;;;;;;4974390;28;20125;-78
2022/07/17 10:36:37;;;;;;;2.38;0.80;;;;;;;;;;4974595;28;20074;-78
2022/07/17 10:39:14;;;;;;;5.15;0.90;;;;;;;;;;4955289;28;20071;-78
2022/07/17 10:41:40;;;;;;;4.85;0.93;;;;;;;;;;4955328;29;20023;-78
2022/07/17 10:44:06;;;;;;;4.22;0.82;;;;;;;;;;4962638;28;20116;-78
2022/07/17 10:46:32;;;;;;;2.78;0.70;;;;;;;;;;4974308;28;20373;-78
2022/07/17 10:49:03;;;;;;;3.92;1.27;;;;;;;;;;4974163;28;20458;-78
2022/07/17 10:51:29;;;;;;;3.20;0.65;;;;;;;;;;4974422;28;20042;-78
2022/07/17 10:53:59;;;;;;;4.40;0.90;;;;;;;;;;4974155;28;20425;-78
2022/07/17 10:56:26;;;;;;;3.38;0.73;;;;;;;;;;4973856;28;20027;-78
2022/07/17 10:58:52;;;;;;;4.45;0.93;;;;;;;;;;4974284;28;20078;-78
2022/07/17 11:01:22;;;;;;;3.60;0.88;;;;;;;;;;4974360;28;20027;-78
2022/07/17 11:03:48;;;;;;;2.22;0.70;;;;;;;;;;4974543;28;20019;-78
2022/07/17 11:06:18;;;;;;;2.40;0.90;;;;;;;;;;4974083;28;20057;-78
2022/07/17 11:08:49;;;;;;;10.88;2.10;;;;;;;;;;4983678;28;20047;-78
2022/07/17 11:11:16;;;;;;;10.82;3.58;;;;;;;;;;4993557;28;20023;-78
2022/07/17 11:13:42;;;;;;;4.55;1.42;;;;;;;;;;4993676;28;20028;-78
2022/07/17 11:16:08;;;;;;;6.47;0.95;;;;;;;;;;4992423;28;20030;-76
2022/07/17 11:18:38;;;;;;;8.70;4.63;;;;;;;;;;4978571;28;20390;-76
2022/07/17 11:21:05;;;;;;;4.75;1.10;;;;;;;;;;4988796;28;20562;-76
2022/07/17 11:23:32;;;;;;;3.33;1.40;;;;;;;;;;4996150;28;20034;-76
2022/07/17 11:25:58;;;;;;;3.55;1.15;;;;;;;;;;4996071;28;20018;-76
2022/07/17 11:28:35;;;;;;;2.92;1.08;;;;;;;;;;4996195;28;20022;-76
2022/07/17 11:31:02;;;;;;;2.33;1.17;;;;;;;;;;4996030;28;20105;-76
2022/07/17 11:33:28;;;;;;;12.13;1.20;;;;;;;;;;4996011;28;20054;-76
2022/07/17 11:35:54;;;;;;;3.05;1.17;;;;;;;;;;4987803;28;20050;-76
2022/07/17 11:38:31;;;;;;;5.13;1.08;;;;;;;;;;4986393;28;20057;-76
2022/07/17 11:40:57;;;;;;;6.40;1.20;;;;;;;;;;4979987;28;20089;-76
2022/07/17 11:43:23;;;;;;;3.60;1.10;;;;;;;;;;4986875;28;20029;-75
2022/07/17 11:45:50;;;;;;;9.55;1.38;;;;;;;;;;4986065;28;20089;-76
2022/07/17 11:48:16;;;;;;;3.30;1.10;;;;;;;;;;4982391;28;20037;-76
2022/07/17 11:50:53;;;;;;;6.88;1.27;;;;;;;;;;4984252;28;20065;-76
2022/07/17 11:53:19;;;;;;;4.57;1.17;;;;;;;;;;4979790;28;20073;-75
2022/07/17 11:55:45;;;;;;;4.45;1.70;;;;;;;;;;4976103;28;20026;-74
2022/07/17 11:58:12;;;;;;;4.35;1.23;;;;;;;;;;4975798;28;20118;-75
2022/07/17 12:00:38;;;;;;;6.63;1.40;;;;;;;;;;4975780;28;20545;-75
2022/07/17 12:03:05;;;;;;;6.03;1.70;;;;;;;;;;4974980;28;20023;-75
2022/07/17 12:05:32;;;;;;;4.18;1.30;;;;;;;;;;4975486;28;20023;-75
2022/07/17 12:07:58;;;;;;;5.85;1.40;;;;;;;;;;4976044;28;20030;-75
2022/07/17 12:10:26;;;;;;;8.15;1.52;;;;;;;;;;4975699;28;20041;-75
2022/07/17 12:13:05;;;;;;;5.95;1.42;;;;;;;;;;4975833;28;20046;-75
2022/07/17 12:15:49;;;;;;;3.58;1.38;;;;;;;;;;4979724;28;20026;-76
2022/07/17 12:18:29;;;;;;;4.55;1.25;;;;;;;;;;4984572;28;20035;-76
2022/07/17 12:20:57;;;;;;;3.22;1.40;;;;;;;;;;4975520;28;20466;-78
2022/07/17 12:23:32;;;;;;;6.80;1.80;;;;;;;;;;4975449;28;20039;-79
2022/07/17 12:26:05;;;;;;;2.97;1.25;;;;;;;;;;4975218;28;20090;-79
2022/07/17 12:28:31;;;;;;;10.65;1.45;;;;;;;;;;4975366;28;20027;-78
2022/07/17 12:30:58;;;;;;;7.68;1.33;;;;;;;;;;4975292;28;20027;-79
2022/07/17 12:33:24;;;;;;;6.18;1.65;;;;;;;;;;4974357;28;20327;-79
2022/07/17 12:35:50;;;;;;;4.22;2.45;;;;;;;;;;4975007;28;20046;-79
2022/07/17 12:38:16;;;;;;;6.20;1.25;;;;;;;;;;4975278;28;20066;-79
2022/07/17 12:40:42;;;;;;;4.80;1.30;;;;;;;;;;4975099;28;20042;-79
2022/07/17 12:43:11;;;;;;;8.65;2.47;;;;;;;;;;4975260;28;20057;-78
2022/07/17 12:45:37;;;;;;;7.53;2.90;;;;;;;;;;4973205;28;20385;-78
2022/07/17 12:48:04;;;;;;;5.82;1.58;;;;;;;;;;4976510;28;20105;-79
2022/07/17 12:50:30;;;;;;;4.45;1.98;;;;;;;;;;4991357;28;20424;-79
2022/07/17 12:52:56;;;;;;;2.78;1.50;;;;;;;;;;4986611;28;20027;-79
2022/07/17 12:55:22;;;;;;;5.63;1.70;;;;;;;;;;4981383;28;20082;-79
2022/07/17 12:57:48;;;;;;;5.15;1.83;;;;;;;;;;4980283;28;20180;-76
2022/07/17 13:00:14;;;;;;;4.85;1.60;;;;;;;;;;4974935;28;20086;-76
2022/07/17 13:29:10;;;;;;;7.93;2.05;;;;;;;;;;5140556;27;20381;-81
2022/07/17 13:31:37;;;;;;;7.00;1.92;;;;;;;;;;5131897;27;20020;-79
2022/07/17 13:34:03;;;;;;;4.80;2.10;;;;;;;;;;5135027;27;20084;-77
2022/07/17 13:36:29;;;;;;;3.95;2.05;;;;;;;;;;5131053;28;20024;-77
2022/07/17 13:38:55;;;;;;;5.53;1.80;;;;;;;;;;5130332;28;20027;-78
2022/07/17 13:41:22;;;;;;;5.15;1.98;;;;;;;;;;5129779;28;20477;-77
2022/07/17 13:43:48;;;;;;;4.55;1.88;;;;;;;;;;5130371;28;20012;-78
2022/07/17 13:46:15;;;;;;;4.20;2.08;;;;;;;;;;5139354;27;20023;-77
2022/07/17 13:48:41;;;;;;;3.75;2.03;;;;;;;;;;5132283;28;20059;-78
2022/07/17 13:51:07;;;;;;;6.03;2.22;;;;;;;;;;5130934;27;20156;-78
2022/07/17 13:53:34;;;;;;;4.90;1.88;;;;;;;;;;5135195;27;20027;-77
2022/07/17 13:56:01;;;;;;;5.70;2.45;;;;;;;;;;5134175;27;20027;-78
2022/07/17 13:58:27;;;;;;;4.32;2.10;;;;;;;;;;5131725;27;20027;-78
2022/07/17 14:00:53;;;;;;;7.90;2.85;;;;;;;;;;5129411;28;20054;-79
2022/07/17 14:03:19;;;;;;;9.35;2.55;;;;;;;;;;5129347;28;20024;-75
2022/07/17 14:05:45;;;;;;;7.10;2.60;;;;;;;;;;5126461;28;20486;-74
2022/07/17 14:08:11;;;;;;;4.47;2.53;;;;;;;;;;5129493;28;20156;-75
2022/07/17 14:10:38;;;;;;;10.52;2.53;;;;;;;;;;5128945;28;20030;-74
2022/07/17 14:13:04;;;;;;;3.63;2.22;;;;;;;;;;5129086;28;20057;-78
2022/07/17 14:15:30;;;;;;;6.18;2.33;;;;;;;;;;5129849;28;20477;-81
2022/07/17 14:17:56;;;;;;;7.85;2.70;;;;;;;;;;5130528;28;20047;-80
2022/07/17 14:20:23;;;;;;;5.40;2.20;;;;;;;;;;5130511;28;20028;-80
2022/07/17 14:22:49;;;;;;;6.25;2.13;;;;;;;;;;5130330;28;20011;-80
2022/07/17 14:25:15;;;;;;;5.15;2.60;;;;;;;;;;5111593;28;20050;-80
2022/07/17 14:27:41;;;;;;;6.40;2.35;;;;;;;;;;5130200;28;20047;-80
2022/07/17 14:30:07;;;;;;;6.25;2.88;;;;;;;;;;5130259;28;20484;-78
2022/07/17 14:32:33;;;;;;;4.35;2.20;;;;;;;;;;5111344;28;20385;-81
2022/07/17 14:34:59;;;;;;;5.43;2.15;;;;;;;;;;5129920;28;20500;-81
2022/07/17 14:37:26;;;;;;;6.32;2.95;;;;;;;;;;5129636;28;20020;-79
2022/07/17 14:39:52;;;;;;;3.50;1.90;;;;;;;;;;5119389;28;20031;-79
2022/07/17 14:42:18;;;;;;;3.20;2.10;;;;;;;;;;5115581;28;20016;-79
2022/07/17 14:44:44;;;;;;;6.50;2.28;;;;;;;;;;5114655;28;20024;-79
2022/07/17 14:47:10;;;;;;;4.53;2.50;;;;;;;;;;5113324;28;20023;-80
2022/07/17 14:49:36;;;;;;;6.80;2.53;;;;;;;;;;5115216;28;20051;-80
2022/07/17 14:52:02;;;;;;;6.30;2.47;;;;;;;;;;5096842;28;20034;-80
2022/07/17 14:54:30;;;;;;;6.03;2.45;;;;;;;;;;5114981;28;20026;-79
2022/07/17 14:56:58;;;;;;;5.75;2.42;;;;;;;;;;5116001;28;20015;-79
2022/07/17 14:59:24;;;;;;;5.88;2.20;;;;;;;;;;5113497;28;20019;-79
2022/07/17 15:01:50;;;;;;;4.82;2.38;;;;;;;;;;5096911;28;20102;-79
2022/07/17 15:04:16;;;;;;;5.55;2.70;;;;;;;;;;5115441;28;20310;-80
2022/07/17 15:06:42;;;;;;;4.43;2.38;;;;;;;;;;5115560;28;20073;-76